createdAt,value
2023-01-11T00:00:29.611Z,0.00
2023-01-11T00:01:29.696Z,0.00
2023-01-11T00:02:29.732Z,0.00
2023-01-11T00:03:29.744Z,0.00
2023-01-11T00:04:30.717Z,0.00
2023-01-11T00:05:29.830Z,0.00
2023-01-11T00:06:29.923Z,0.00
2023-01-11T00:07:29.906Z,0.00
2023-01-11T00:08:29.959Z,0.00
2023-01-11T00:09:30.000Z,0.00
2023-01-11T00:10:30.060Z,0.00
2023-01-11T00:11:30.086Z,0.00
2023-01-11T00:12:30.127Z,0.00
2023-01-11T00:13:30.164Z,0.00
2023-01-11T00:14:30.209Z,0.00
2023-01-11T00:15:30.276Z,0.00
2023-01-11T00:16:30.865Z,0.00
2023-01-11T00:17:30.331Z,0.00
2023-01-11T00:18:30.375Z,0.00
2023-01-11T00:19:30.443Z,0.00
2023-01-11T00:20:30.517Z,0.00
2023-01-11T00:21:30.501Z,0.00
2023-01-11T00:22:30.541Z,0.00
2023-01-11T00:23:30.589Z,0.00
2023-01-11T00:24:30.641Z,0.00
2023-01-11T00:25:30.761Z,0.00
2023-01-11T00:26:30.767Z,0.00
2023-01-11T00:27:30.758Z,0.00
2023-01-11T00:28:30.803Z,0.00
2023-01-11T00:29:30.836Z,0.00
2023-01-11T00:30:30.912Z,0.00
2023-01-11T00:31:30.963Z,0.00
2023-01-11T00:32:30.967Z,0.00
2023-01-11T00:33:31.876Z,0.00
2023-01-11T00:34:31.050Z,0.00
2023-01-11T00:35:31.119Z,0.00
2023-01-11T00:36:31.146Z,0.00
2023-01-11T00:37:31.179Z,0.00
2023-01-11T00:38:31.225Z,0.00
2023-01-11T00:39:31.267Z,0.00
2023-01-11T00:40:31.320Z,0.00
2023-01-11T00:41:31.344Z,0.00
2023-01-11T00:42:31.381Z,0.00
2023-01-11T00:43:31.439Z,0.00
2023-01-11T00:44:31.497Z,0.00
2023-01-11T00:45:31.519Z,0.00
2023-01-11T00:46:31.578Z,0.00
2023-01-11T00:47:31.612Z,0.00
2023-01-11T00:48:31.634Z,0.00
2023-01-11T00:49:31.709Z,0.00
2023-01-11T00:50:31.748Z,0.00
2023-01-11T00:51:31.771Z,0.00
2023-01-11T00:52:31.813Z,0.00
2023-01-11T00:53:31.868Z,0.00
2023-01-11T00:54:32.878Z,0.00
2023-01-11T00:55:32.003Z,0.00
2023-01-11T00:56:31.982Z,0.00
2023-01-11T00:57:32.033Z,0.00
2023-01-11T00:58:32.055Z,0.00
2023-01-11T00:59:32.140Z,0.00
2023-01-11T01:00:32.158Z,0.00
2023-01-11T01:01:32.293Z,0.00
2023-01-11T01:02:32.276Z,0.00
2023-01-11T01:03:32.278Z,0.00
2023-01-11T01:04:32.340Z,0.00
2023-01-11T01:05:32.360Z,0.00
2023-01-11T01:06:32.421Z,0.00
2023-01-11T01:07:32.447Z,0.00
2023-01-11T01:08:32.528Z,0.00
2023-01-11T01:09:32.532Z,0.00
2023-01-11T01:10:32.572Z,0.00
2023-01-11T01:11:32.640Z,0.00
2023-01-11T01:12:32.653Z,0.00
2023-01-11T01:13:32.700Z,0.00
2023-01-11T01:14:32.737Z,0.00
2023-01-11T01:15:32.872Z,0.00
2023-01-11T01:16:32.844Z,0.00
2023-01-11T01:17:32.910Z,0.00
2023-01-11T01:18:32.929Z,0.00
2023-01-11T01:19:32.952Z,0.00
2023-01-11T01:20:33.000Z,0.00
2023-01-11T01:21:33.038Z,0.00
2023-01-11T01:22:33.115Z,0.00
2023-01-11T01:23:33.121Z,0.00
2023-01-11T01:24:33.164Z,0.00
2023-01-11T01:25:33.209Z,0.00
2023-01-11T01:26:33.245Z,0.00
2023-01-11T01:27:33.316Z,0.00
2023-01-11T01:28:33.333Z,0.00
2023-01-11T01:29:33.394Z,0.00
2023-01-11T01:30:33.414Z,0.00
2023-01-11T01:31:33.507Z,0.00
2023-01-11T01:32:33.532Z,0.00
2023-01-11T01:33:33.560Z,0.00
2023-01-11T01:34:33.581Z,0.00
2023-01-11T01:35:33.638Z,0.00
2023-01-11T01:36:33.667Z,0.00
2023-01-11T01:37:33.739Z,0.00
2023-01-11T01:38:33.751Z,0.00
2023-01-11T01:39:33.793Z,0.00
2023-01-11T01:40:33.843Z,0.00
2023-01-11T01:41:33.913Z,0.00
2023-01-11T01:42:33.944Z,0.00
2023-01-11T01:43:33.974Z,0.00
2023-01-11T01:44:34.017Z,0.00
2023-01-11T01:45:34.054Z,0.00
2023-01-11T01:46:34.298Z,0.00
2023-01-11T01:47:34.137Z,0.00
2023-01-11T01:48:34.188Z,0.00
2023-01-11T01:49:34.219Z,0.00
2023-01-11T01:50:34.288Z,0.00
2023-01-11T01:51:34.311Z,0.00
2023-01-11T01:52:34.380Z,0.00
2023-01-11T01:53:34.391Z,0.00
2023-01-11T01:54:34.445Z,0.00
2023-01-11T01:55:34.483Z,0.00
2023-01-11T01:56:34.553Z,0.00
2023-01-11T01:57:34.573Z,0.00
2023-01-11T01:58:34.603Z,0.00
2023-01-11T01:59:34.668Z,0.00
2023-01-11T02:00:34.690Z,0.00
2023-01-11T02:01:34.834Z,0.00
2023-01-11T02:02:34.846Z,0.00
2023-01-11T02:03:34.839Z,0.00
2023-01-11T02:04:34.860Z,0.00
2023-01-11T02:05:34.912Z,0.00
2023-01-11T02:06:35.063Z,0.00
2023-01-11T02:07:35.001Z,0.00
2023-01-11T02:08:35.039Z,0.00
2023-01-11T02:09:35.081Z,0.00
2023-01-11T02:10:35.134Z,0.00
2023-01-11T02:11:35.188Z,0.00
2023-01-11T02:12:35.209Z,0.00
2023-01-11T02:13:35.252Z,0.00
2023-01-11T02:14:35.296Z,0.00
2023-01-11T02:15:35.360Z,0.00
2023-01-11T02:16:35.387Z,0.00
2023-01-11T02:17:35.427Z,0.00
2023-01-11T02:18:35.457Z,0.00
2023-01-11T02:19:35.506Z,0.00
2023-01-11T02:20:35.585Z,0.00
2023-01-11T02:21:35.600Z,0.00
2023-01-11T02:22:35.658Z,0.00
2023-01-11T02:23:35.685Z,0.00
2023-01-11T02:24:35.714Z,0.00
2023-01-11T02:25:35.755Z,0.00
2023-01-11T02:26:35.821Z,0.00
2023-01-11T02:27:35.863Z,0.00
2023-01-11T02:28:35.891Z,0.00
2023-01-11T02:29:35.940Z,0.00
2023-01-11T02:30:35.976Z,0.00
2023-01-11T02:31:36.142Z,0.00
2023-01-11T02:32:36.090Z,0.00
2023-01-11T02:33:36.098Z,0.00
2023-01-11T02:34:36.147Z,0.00
2023-01-11T02:35:36.206Z,0.00
2023-01-11T02:36:36.243Z,0.00
2023-01-11T02:37:36.266Z,0.00
2023-01-11T02:38:36.363Z,0.00
2023-01-11T02:39:36.362Z,0.00
2023-01-11T02:40:36.435Z,0.00
2023-01-11T02:41:36.472Z,0.00
2023-01-11T02:42:36.528Z,0.00
2023-01-11T02:43:37.391Z,0.00
2023-01-11T02:44:36.579Z,0.00
2023-01-11T02:45:36.618Z,0.00
2023-01-11T02:46:36.675Z,0.00
2023-01-11T02:47:36.737Z,0.00
2023-01-11T02:48:36.757Z,0.00
2023-01-11T02:49:36.795Z,0.00
2023-01-11T02:50:36.826Z,0.00
2023-01-11T02:51:36.874Z,0.00
2023-01-11T02:52:36.957Z,0.00
2023-01-11T02:53:36.971Z,0.00
2023-01-11T02:54:37.908Z,0.00
2023-01-11T02:55:39.882Z,0.00
2023-01-11T02:56:37.098Z,0.00
2023-01-11T02:57:37.161Z,0.00
2023-01-11T02:58:37.170Z,0.00
2023-01-11T02:59:37.227Z,0.00
2023-01-11T03:00:37.251Z,0.00
2023-01-11T03:01:37.914Z,0.00
2023-01-11T03:02:37.394Z,0.00
2023-01-11T03:03:37.405Z,0.00
2023-01-11T03:04:37.438Z,0.00
2023-01-11T03:05:37.480Z,0.00
2023-01-11T03:06:37.609Z,0.00
2023-01-11T03:07:37.576Z,0.00
2023-01-11T03:08:38.410Z,0.00
2023-01-11T03:09:37.661Z,0.00
2023-01-11T03:10:37.691Z,0.00
2023-01-11T03:11:37.751Z,0.00
2023-01-11T03:12:37.769Z,0.00
2023-01-11T03:13:37.871Z,0.00
2023-01-11T03:14:38.382Z,0.00
2023-01-11T03:15:37.896Z,0.00
2023-01-11T03:16:37.935Z,0.00
2023-01-11T03:17:37.998Z,0.00
2023-01-11T03:18:38.018Z,0.00
2023-01-11T03:19:38.896Z,0.00
2023-01-11T03:20:38.131Z,0.00
2023-01-11T03:21:38.168Z,0.00
2023-01-11T03:22:38.186Z,0.00
2023-01-11T03:23:38.264Z,0.00
2023-01-11T03:24:38.286Z,0.00
2023-01-11T03:25:38.317Z,0.00
2023-01-11T03:26:38.887Z,0.00
2023-01-11T03:27:38.401Z,0.00
2023-01-11T03:28:38.463Z,0.00
2023-01-11T03:29:38.486Z,0.00
2023-01-11T03:30:38.569Z,0.00
2023-01-11T03:31:38.660Z,0.00
2023-01-11T03:32:39.396Z,0.00
2023-01-11T03:33:39.384Z,0.00
2023-01-11T03:34:38.699Z,0.00
2023-01-11T03:35:38.790Z,0.00
2023-01-11T03:36:38.802Z,0.00
2023-01-11T03:37:38.827Z,0.00
2023-01-11T03:38:38.875Z,0.00
2023-01-11T03:39:38.953Z,0.00
2023-01-11T03:40:38.960Z,0.00
2023-01-11T03:41:39.035Z,0.00
2023-01-11T03:42:39.049Z,0.00
2023-01-11T03:43:39.091Z,0.00
2023-01-11T03:44:39.130Z,0.00
2023-01-11T03:45:39.160Z,0.00
2023-01-11T03:46:39.287Z,0.00
2023-01-11T03:47:39.279Z,0.00
2023-01-11T03:48:39.329Z,0.00
2023-01-11T03:49:39.337Z,0.00
2023-01-11T03:50:39.383Z,0.00
2023-01-11T03:51:39.419Z,0.00
2023-01-11T03:52:39.491Z,0.00
2023-01-11T03:53:39.516Z,0.00
2023-01-11T03:54:39.556Z,0.00
2023-01-11T03:55:39.593Z,0.00
2023-01-11T03:56:39.631Z,0.00
2023-01-11T03:57:39.706Z,0.00
2023-01-11T03:58:40.400Z,0.00
2023-01-11T03:59:39.767Z,0.00
2023-01-11T04:00:39.852Z,0.00
2023-01-11T04:01:39.873Z,0.00
2023-01-11T04:02:39.908Z,0.00
2023-01-11T04:03:39.938Z,0.00
2023-01-11T04:04:40.034Z,0.00
2023-01-11T04:05:40.044Z,0.00
2023-01-11T04:06:40.147Z,0.00
2023-01-11T04:07:40.109Z,0.00
2023-01-11T04:08:40.150Z,0.00
2023-01-11T04:09:40.197Z,0.00
2023-01-11T04:10:40.233Z,0.00
2023-01-11T04:11:40.297Z,0.00
2023-01-11T04:12:40.313Z,0.00
2023-01-11T04:13:40.366Z,0.00
2023-01-11T04:14:40.406Z,0.00
2023-01-11T04:15:40.441Z,0.00
2023-01-11T04:16:40.540Z,0.00
2023-01-11T04:17:41.394Z,0.00
2023-01-11T04:18:40.568Z,0.00
2023-01-11T04:19:40.651Z,0.00
2023-01-11T04:20:40.664Z,0.00
2023-01-11T04:21:40.730Z,0.00
2023-01-11T04:22:40.745Z,0.00
2023-01-11T04:23:40.833Z,0.00
2023-01-11T04:24:40.862Z,0.00
2023-01-11T04:25:40.877Z,0.00
2023-01-11T04:26:40.912Z,0.00
2023-01-11T04:27:40.964Z,0.00
2023-01-11T04:28:41.030Z,0.00
2023-01-11T04:29:41.070Z,0.00
2023-01-11T04:30:41.909Z,0.00
2023-01-11T04:31:41.169Z,0.00
2023-01-11T04:32:41.173Z,0.00
2023-01-11T04:33:41.215Z,0.00
2023-01-11T04:34:41.281Z,0.00
2023-01-11T04:35:41.300Z,0.00
2023-01-11T04:36:41.383Z,0.00
2023-01-11T04:37:41.387Z,0.00
2023-01-11T04:38:42.408Z,0.00
2023-01-11T04:39:41.478Z,0.00
2023-01-11T04:40:41.533Z,0.00
2023-01-11T04:41:41.554Z,0.00
2023-01-11T04:42:41.599Z,0.00
2023-01-11T04:43:41.679Z,0.00
2023-01-11T04:44:41.746Z,0.00
2023-01-11T04:45:41.756Z,0.00
2023-01-11T04:46:41.761Z,0.00
2023-01-11T04:47:41.827Z,0.00
2023-01-11T04:48:41.877Z,0.00
2023-01-11T04:49:41.896Z,0.00
2023-01-11T04:50:42.063Z,0.00
2023-01-11T04:51:41.982Z,0.00
2023-01-11T04:52:42.026Z,0.00
2023-01-11T04:53:42.087Z,0.00
2023-01-11T04:54:42.200Z,0.00
2023-01-11T04:55:42.187Z,0.00
2023-01-11T04:56:42.189Z,0.00
2023-01-11T04:57:42.232Z,0.00
2023-01-11T04:58:42.278Z,0.00
2023-01-11T04:59:42.319Z,0.00
2023-01-11T05:00:42.465Z,0.00
2023-01-11T05:01:43.408Z,0.00
2023-01-11T05:02:42.471Z,0.00
2023-01-11T05:03:42.577Z,0.00
2023-01-11T05:04:42.544Z,0.00
2023-01-11T05:05:42.589Z,0.00
2023-01-11T05:06:42.638Z,0.00
2023-01-11T05:07:42.693Z,0.00
2023-01-11T05:08:42.704Z,0.00
2023-01-11T05:09:42.741Z,0.00
2023-01-11T05:10:42.783Z,0.00
2023-01-11T05:11:42.826Z,0.00
2023-01-11T05:12:42.917Z,0.00
2023-01-11T05:13:42.971Z,0.00
2023-01-11T05:14:42.954Z,0.00
2023-01-11T05:15:43.026Z,0.00
2023-01-11T05:16:43.133Z,0.00
2023-01-11T05:17:44.605Z,0.00
2023-01-11T05:18:43.131Z,0.00
2023-01-11T05:19:43.194Z,0.00
2023-01-11T05:20:43.210Z,0.00
2023-01-11T05:21:43.256Z,0.00
2023-01-11T05:22:43.323Z,0.00
2023-01-11T05:23:43.328Z,0.00
2023-01-11T05:24:43.379Z,0.00
2023-01-11T05:25:43.420Z,0.00
2023-01-11T05:26:43.489Z,0.00
2023-01-11T05:27:43.504Z,0.00
2023-01-11T05:28:43.565Z,0.00
2023-01-11T05:29:43.580Z,0.00
2023-01-11T05:30:43.623Z,0.00
2023-01-11T05:31:43.710Z,0.00
2023-01-11T05:32:43.712Z,0.00
2023-01-11T05:33:43.747Z,0.00
2023-01-11T05:34:43.791Z,0.00
2023-01-11T05:35:43.833Z,0.00
2023-01-11T05:36:43.906Z,0.00
2023-01-11T05:37:44.907Z,0.00
2023-01-11T05:38:43.961Z,0.00
2023-01-11T05:39:43.998Z,0.00
2023-01-11T05:40:44.049Z,0.00
2023-01-11T05:41:44.135Z,0.00
2023-01-11T05:42:44.129Z,0.00
2023-01-11T05:43:44.177Z,0.00
2023-01-11T05:44:44.917Z,0.00
2023-01-11T05:45:44.314Z,0.00
2023-01-11T05:46:44.326Z,0.00
2023-01-11T05:47:44.372Z,0.00
2023-01-11T05:48:44.394Z,0.00
2023-01-11T05:49:44.431Z,0.00
2023-01-11T05:50:45.406Z,0.00
2023-01-11T05:51:44.512Z,0.00
2023-01-11T05:52:44.579Z,0.00
2023-01-11T05:53:44.595Z,0.00
2023-01-11T05:54:44.672Z,0.00
2023-01-11T05:55:44.686Z,0.00
2023-01-11T05:56:44.730Z,0.00
2023-01-11T05:57:44.786Z,0.00
2023-01-11T05:58:44.813Z,0.00
2023-01-11T05:59:44.851Z,0.00
2023-01-11T06:00:44.888Z,0.00
2023-01-11T06:01:44.984Z,0.00
2023-01-11T06:02:45.089Z,0.00
2023-01-11T06:03:45.015Z,0.00
2023-01-11T06:04:45.066Z,0.00
2023-01-11T06:05:46.063Z,0.00
2023-01-11T06:06:45.251Z,0.00
2023-01-11T06:07:45.189Z,0.00
2023-01-11T06:08:45.239Z,0.00
2023-01-11T06:09:45.286Z,0.00
2023-01-11T06:10:45.313Z,0.00
2023-01-11T06:11:45.387Z,0.00
2023-01-11T06:12:45.423Z,0.00
2023-01-11T06:13:45.463Z,0.00
2023-01-11T06:14:46.400Z,0.00
2023-01-11T06:15:45.534Z,0.00
2023-01-11T06:16:45.667Z,0.00
2023-01-11T06:17:45.608Z,0.00
2023-01-11T06:18:45.663Z,0.00
2023-01-11T06:19:45.728Z,0.00
2023-01-11T06:20:45.739Z,0.00
2023-01-11T06:21:45.790Z,0.00
2023-01-11T06:22:45.820Z,0.00
2023-01-11T06:23:45.888Z,0.00
2023-01-11T06:24:45.933Z,0.00
2023-01-11T06:25:45.972Z,0.00
2023-01-11T06:26:46.908Z,0.00
2023-01-11T06:27:46.035Z,0.00
2023-01-11T06:28:46.076Z,0.00
2023-01-11T06:29:46.124Z,0.00
2023-01-11T06:30:46.212Z,0.00
2023-01-11T06:31:46.204Z,0.00
2023-01-11T06:32:46.247Z,0.00
2023-01-11T06:33:46.910Z,0.00
2023-01-11T06:34:46.327Z,0.00
2023-01-11T06:35:46.411Z,0.00
2023-01-11T06:36:46.453Z,0.00
2023-01-11T06:37:46.462Z,0.00
2023-01-11T06:38:46.530Z,0.00
2023-01-11T06:39:46.543Z,0.00
2023-01-11T06:40:46.593Z,0.00
2023-01-11T06:41:46.658Z,0.00
2023-01-11T06:42:46.677Z,0.00
2023-01-11T06:43:46.708Z,0.00
2023-01-11T06:44:46.756Z,0.00
2023-01-11T06:45:46.830Z,0.00
2023-01-11T06:46:46.871Z,0.00
2023-01-11T06:47:46.880Z,0.00
2023-01-11T06:48:46.920Z,0.00
2023-01-11T06:49:46.991Z,0.00
2023-01-11T06:50:47.015Z,0.00
2023-01-11T06:51:47.095Z,0.00
2023-01-11T06:52:47.096Z,0.00
2023-01-11T06:53:47.174Z,0.00
2023-01-11T06:54:47.173Z,0.00
2023-01-11T06:55:47.216Z,0.00
2023-01-11T06:56:47.268Z,0.00
2023-01-11T06:57:47.314Z,0.00
2023-01-11T06:58:47.760Z,0.00
2023-01-11T06:59:47.385Z,0.00
2023-01-11T07:00:47.436Z,0.00
2023-01-11T07:01:48.495Z,0.00
2023-01-11T07:02:47.513Z,0.00
2023-01-11T07:03:47.582Z,0.00
2023-01-11T07:04:47.746Z,0.00
2023-01-11T07:05:47.651Z,0.00
2023-01-11T07:06:47.711Z,0.00
2023-01-11T07:07:47.737Z,0.00
2023-01-11T07:08:47.794Z,0.00
2023-01-11T07:09:47.812Z,0.00
2023-01-11T07:10:47.900Z,0.00
2023-01-11T07:11:47.895Z,0.00
2023-01-11T07:12:47.942Z,0.00
2023-01-11T07:13:47.995Z,0.00
2023-01-11T07:14:48.021Z,5.63
2023-01-11T07:15:48.136Z,5.63
2023-01-11T07:16:48.136Z,5.63
2023-01-11T07:17:48.161Z,5.63
2023-01-11T07:18:48.203Z,5.63
2023-01-11T07:19:48.233Z,5.63
2023-01-11T07:20:48.287Z,5.63
2023-01-11T07:21:48.345Z,5.63
2023-01-11T07:22:48.371Z,11.25
2023-01-11T07:23:48.444Z,11.25
2023-01-11T07:24:48.543Z,11.25
2023-01-11T07:25:48.495Z,16.88
2023-01-11T07:26:48.529Z,16.88
2023-01-11T07:27:48.592Z,16.88
2023-01-11T07:28:48.644Z,16.88
2023-01-11T07:29:48.659Z,16.88
2023-01-11T07:30:58.351Z,16.88
2023-01-11T07:31:48.790Z,16.88
2023-01-11T07:32:48.782Z,16.88
2023-01-11T07:33:48.829Z,22.50
2023-01-11T07:34:48.888Z,22.50
2023-01-11T07:35:48.912Z,22.50
2023-01-11T07:36:48.993Z,28.13
2023-01-11T07:37:49.012Z,22.50
2023-01-11T07:38:49.045Z,28.13
2023-01-11T07:39:49.085Z,28.13
2023-01-11T07:40:49.129Z,33.75
2023-01-11T07:41:49.199Z,33.75
2023-01-11T07:42:49.209Z,33.75
2023-01-11T07:43:49.289Z,33.75
2023-01-11T07:44:49.304Z,33.75
2023-01-11T07:45:50.121Z,33.75
2023-01-11T07:46:49.473Z,33.75
2023-01-11T07:47:49.433Z,33.75
2023-01-11T07:48:49.497Z,33.75
2023-01-11T07:49:49.519Z,33.75
2023-01-11T07:50:49.568Z,33.75
2023-01-11T07:51:49.629Z,33.75
2023-01-11T07:52:49.646Z,33.75
2023-01-11T07:53:49.678Z,33.75
2023-01-11T07:54:49.732Z,39.38
2023-01-11T07:55:49.760Z,39.38
2023-01-11T07:56:49.832Z,45.00
2023-01-11T07:57:49.852Z,45.00
2023-01-11T07:58:49.890Z,45.00
2023-01-11T07:59:49.941Z,45.00
2023-01-11T08:00:49.984Z,45.00
2023-01-11T08:01:50.052Z,45.00
2023-01-11T08:02:50.989Z,45.00
2023-01-11T08:03:50.122Z,45.00
2023-01-11T08:04:50.146Z,45.00
2023-01-11T08:05:50.226Z,45.00
2023-01-11T08:06:50.238Z,45.00
2023-01-11T08:07:50.273Z,45.00
2023-01-11T08:08:50.318Z,50.63
2023-01-11T08:09:50.362Z,56.25
2023-01-11T08:10:50.428Z,61.88
2023-01-11T08:11:50.447Z,73.13
2023-01-11T08:12:51.611Z,67.50
2023-01-11T08:13:50.540Z,78.75
2023-01-11T08:14:50.604Z,90.00
2023-01-11T08:15:50.813Z,95.63
2023-01-11T08:16:50.676Z,95.63
2023-01-11T08:17:50.723Z,95.63
2023-01-11T08:18:50.756Z,95.63
2023-01-11T08:19:50.807Z,90.00
2023-01-11T08:20:50.871Z,84.38
2023-01-11T08:21:50.884Z,90.00
2023-01-11T08:22:50.964Z,95.63
2023-01-11T08:23:50.976Z,101.25
2023-01-11T08:24:51.021Z,106.88
2023-01-11T08:25:51.057Z,101.25
2023-01-11T08:26:51.173Z,106.88
2023-01-11T08:27:51.156Z,112.50
2023-01-11T08:28:51.226Z,129.38
2023-01-11T08:29:51.221Z,118.13
2023-01-11T08:30:51.301Z,129.38
2023-01-11T08:31:51.314Z,123.75
2023-01-11T08:32:51.930Z,123.75
2023-01-11T08:33:51.424Z,123.75
2023-01-11T08:34:51.460Z,135.00
2023-01-11T08:35:51.491Z,146.25
2023-01-11T08:36:51.605Z,191.25
2023-01-11T08:37:51.596Z,180.00
2023-01-11T08:38:52.443Z,163.13
2023-01-11T08:39:51.664Z,196.88
2023-01-11T08:40:51.702Z,196.88
2023-01-11T08:41:51.810Z,191.25
2023-01-11T08:42:51.783Z,202.50
2023-01-11T08:43:51.827Z,202.50
2023-01-11T08:44:51.911Z,202.50
2023-01-11T08:45:51.920Z,185.63
2023-01-11T08:46:52.628Z,174.38
2023-01-11T08:47:52.217Z,168.75
2023-01-11T08:48:52.071Z,163.13
2023-01-11T08:49:52.919Z,157.50
2023-01-11T08:50:52.181Z,146.25
2023-01-11T08:51:52.941Z,135.00
2023-01-11T08:52:52.246Z,129.38
2023-01-11T08:53:52.264Z,123.75
2023-01-11T08:54:52.307Z,118.13
2023-01-11T08:55:52.362Z,118.13
2023-01-11T08:56:52.431Z,112.50
2023-01-11T08:57:52.467Z,112.50
2023-01-11T08:58:52.485Z,112.50
2023-01-11T08:59:52.527Z,112.50
2023-01-11T09:00:52.575Z,112.50
2023-01-11T09:01:52.686Z,112.50
2023-01-11T09:02:52.757Z,101.25
2023-01-11T09:03:52.723Z,95.63
2023-01-11T09:04:52.750Z,95.63
2023-01-11T09:05:52.813Z,90.00
2023-01-11T09:06:52.840Z,90.00
2023-01-11T09:07:52.916Z,84.38
2023-01-11T09:08:52.934Z,90.00
2023-01-11T09:09:52.989Z,90.00
2023-01-11T09:10:53.043Z,90.00
2023-01-11T09:11:53.098Z,90.00
2023-01-11T09:12:53.106Z,95.63
2023-01-11T09:13:53.195Z,95.63
2023-01-11T09:14:53.229Z,101.25
2023-01-11T09:15:53.296Z,106.88
2023-01-11T09:16:53.389Z,112.50
2023-01-11T09:17:53.332Z,118.13
2023-01-11T09:18:53.403Z,118.13
2023-01-11T09:19:53.987Z,123.75
2023-01-11T09:20:53.490Z,129.38
2023-01-11T09:21:53.575Z,129.38
2023-01-11T09:22:53.684Z,129.38
2023-01-11T09:23:53.653Z,129.38
2023-01-11T09:24:53.657Z,135.00
2023-01-11T09:25:54.461Z,129.38
2023-01-11T09:26:53.804Z,135.00
2023-01-11T09:27:53.879Z,135.00
2023-01-11T09:28:54.524Z,140.63
2023-01-11T09:29:53.869Z,140.63
2023-01-11T09:30:53.972Z,146.25
2023-01-11T09:31:53.963Z,140.63
2023-01-11T09:32:54.103Z,135.00
2023-01-11T09:33:54.090Z,129.38
2023-01-11T09:34:54.112Z,123.75
2023-01-11T09:35:54.164Z,118.13
2023-01-11T09:36:54.259Z,118.13
2023-01-11T09:37:54.269Z,112.50
2023-01-11T09:38:54.294Z,112.50
2023-01-11T09:39:54.316Z,112.50
2023-01-11T09:40:54.415Z,106.88
2023-01-11T09:41:54.495Z,106.88
2023-01-11T09:42:54.477Z,106.88
2023-01-11T09:43:54.542Z,112.50
2023-01-11T09:44:54.603Z,112.50
2023-01-11T09:45:54.622Z,112.50
2023-01-11T09:46:54.751Z,112.50
2023-01-11T09:47:54.759Z,112.50
2023-01-11T09:48:54.756Z,112.50
2023-01-11T09:49:54.805Z,112.50
2023-01-11T09:50:54.931Z,106.88
2023-01-11T09:51:54.856Z,106.88
2023-01-11T09:52:54.881Z,101.25
2023-01-11T09:53:54.950Z,101.25
2023-01-11T09:54:54.976Z,95.63
2023-01-11T09:55:55.023Z,95.63
2023-01-11T09:56:55.054Z,95.63
2023-01-11T09:57:55.199Z,95.63
2023-01-11T09:58:55.146Z,95.63
2023-01-11T09:59:55.232Z,95.63
2023-01-11T10:00:55.305Z,101.25
2023-01-11T10:01:55.307Z,101.25
2023-01-11T10:02:55.430Z,95.63
2023-01-11T10:03:55.381Z,95.63
2023-01-11T10:04:55.466Z,95.63
2023-01-11T10:05:56.470Z,90.00
2023-01-11T10:06:55.533Z,90.00
2023-01-11T10:18:22.583Z,73.13
2023-01-11T10:18:25.531Z,73.13
2023-01-11T10:18:26.166Z,73.13
2023-01-11T10:18:40.220Z,73.13
2023-01-11T10:19:19.623Z,78.75
2023-01-11T10:19:56.154Z,78.75
2023-01-11T10:20:56.191Z,78.75
2023-01-11T10:21:56.310Z,78.75
2023-01-11T10:22:56.992Z,73.13
2023-01-11T10:23:56.352Z,73.13
2023-01-11T10:24:56.458Z,73.13
2023-01-11T10:25:56.402Z,73.13
2023-01-11T10:26:56.501Z,73.13
2023-01-11T10:27:56.486Z,73.13
2023-01-11T10:28:56.540Z,78.75
2023-01-11T10:29:56.660Z,78.75
2023-01-11T10:30:56.606Z,78.75
2023-01-11T10:31:56.653Z,78.75
2023-01-11T10:32:56.717Z,78.75
2023-01-11T10:33:56.747Z,84.38
2023-01-11T10:34:56.811Z,90.00
2023-01-11T10:35:56.845Z,90.00
2023-01-11T10:36:56.860Z,95.63
2023-01-11T10:37:56.939Z,95.63
2023-01-11T10:38:56.986Z,95.63
2023-01-11T10:39:57.092Z,95.63
2023-01-11T10:40:57.066Z,101.25
2023-01-11T10:41:57.130Z,106.88
2023-01-11T10:42:57.173Z,106.88
2023-01-11T10:43:57.199Z,112.50
2023-01-11T10:44:57.305Z,123.75
2023-01-11T10:45:57.354Z,135.00
2023-01-11T10:46:58.014Z,163.13
2023-01-11T10:47:57.384Z,180.00
2023-01-11T10:48:57.434Z,247.50
2023-01-11T10:49:57.528Z,225.00
2023-01-11T10:50:57.510Z,225.00
2023-01-11T10:51:57.590Z,191.25
2023-01-11T10:52:57.551Z,180.00
2023-01-11T10:53:57.632Z,168.75
2023-01-11T10:54:57.785Z,168.75
2023-01-11T10:55:57.739Z,157.50
2023-01-11T10:57:01.821Z,157.50
2023-01-11T10:58:01.674Z,146.25
2023-01-11T10:58:57.929Z,146.25
2023-01-11T10:59:57.880Z,146.25
2023-01-11T11:00:58.664Z,146.25
2023-01-11T11:01:59.015Z,146.25
2023-01-11T11:02:58.000Z,146.25
2023-01-11T11:03:58.070Z,151.88
2023-01-11T11:04:58.093Z,146.25
2023-01-11T11:05:58.149Z,146.25
2023-01-11T11:06:58.212Z,140.63
2023-01-11T11:07:58.343Z,135.00
2023-01-11T11:08:58.298Z,123.75
2023-01-11T11:09:58.369Z,118.13
2023-01-11T11:10:58.406Z,112.50
2023-01-11T11:11:58.510Z,112.50
2023-01-11T11:12:58.524Z,112.50
2023-01-11T11:13:58.616Z,106.88
2023-01-11T11:14:58.560Z,106.88
2023-01-11T11:15:58.733Z,106.88
2023-01-11T11:16:58.683Z,106.88
2023-01-11T11:17:58.719Z,101.25
2023-01-11T11:18:58.764Z,95.63
2023-01-11T11:19:58.820Z,95.63
2023-01-11T11:20:58.863Z,90.00
2023-01-11T11:21:58.875Z,90.00
2023-01-11T11:22:58.921Z,90.00
2023-01-11T11:23:58.968Z,90.00
2023-01-11T11:24:59.022Z,84.38
2023-01-11T11:25:59.045Z,78.75
2023-01-11T11:26:59.208Z,73.13
2023-01-11T11:27:59.129Z,73.13
2023-01-11T11:28:59.164Z,67.50
2023-01-11T11:29:59.238Z,67.50
2023-01-11T11:30:59.259Z,61.88
2023-01-11T11:31:59.352Z,61.88
2023-01-11T11:32:59.365Z,61.88
2023-01-11T11:33:59.413Z,56.25
2023-01-11T11:34:59.481Z,56.25
2023-01-11T11:35:59.521Z,56.25
2023-01-11T11:36:59.689Z,56.25
2023-01-11T11:37:59.608Z,56.25
2023-01-11T11:38:59.643Z,50.63
2023-01-11T11:39:59.698Z,50.63
2023-01-11T11:40:59.780Z,50.63
2023-01-11T11:41:59.903Z,50.63
2023-01-11T11:42:59.873Z,50.63
2023-01-11T11:43:59.910Z,50.63
2023-01-11T11:44:59.999Z,50.63
2023-01-11T11:46:00.024Z,45.00
2023-01-11T11:47:00.992Z,45.00
2023-01-11T11:48:00.062Z,39.38
2023-01-11T11:49:00.090Z,39.38
2023-01-11T11:50:00.170Z,39.38
2023-01-11T11:51:00.188Z,33.75
2023-01-11T11:52:00.249Z,33.75
2023-01-11T11:53:00.264Z,33.75
2023-01-11T11:54:00.339Z,33.75
2023-01-11T11:55:00.437Z,33.75
2023-01-11T11:56:00.386Z,33.75
2023-01-11T11:57:00.460Z,33.75
2023-01-11T11:58:00.516Z,33.75
2023-01-11T11:59:00.530Z,33.75
2023-01-11T12:00:00.656Z,33.75
2023-01-11T12:01:00.668Z,33.75
2023-01-11T12:02:00.767Z,33.75
2023-01-11T12:03:00.746Z,33.75
2023-01-11T12:04:00.884Z,33.75
2023-01-11T12:05:00.872Z,39.38
2023-01-11T12:06:00.999Z,39.38
2023-01-11T12:07:00.989Z,39.38
2023-01-11T12:08:00.981Z,39.38
2023-01-11T12:09:00.996Z,39.38
2023-01-11T12:10:01.049Z,45.00
2023-01-11T12:11:01.095Z,45.00
2023-01-11T12:12:01.274Z,50.63
2023-01-11T12:13:01.205Z,56.25
2023-01-11T12:14:01.252Z,61.88
2023-01-11T12:15:01.415Z,67.50
2023-01-11T12:16:01.366Z,67.50
2023-01-11T12:17:01.333Z,73.13
2023-01-11T12:18:01.381Z,73.13
2023-01-11T12:19:01.410Z,73.13
2023-01-11T12:20:01.464Z,67.50
2023-01-11T12:21:01.481Z,67.50
2023-01-11T12:22:01.531Z,67.50
2023-01-11T12:23:01.611Z,73.13
2023-01-11T12:24:01.629Z,78.75
2023-01-11T12:25:01.660Z,84.38
2023-01-11T12:26:01.711Z,90.00
2023-01-11T12:27:01.811Z,90.00
2023-01-11T12:28:01.818Z,95.63
2023-01-11T12:29:01.859Z,95.63
2023-01-11T12:30:01.884Z,95.63
2023-01-11T12:31:02.002Z,90.00
2023-01-11T12:32:01.983Z,84.38
2023-01-11T12:33:02.013Z,78.75
2023-01-11T12:34:02.078Z,73.13
2023-01-11T12:35:02.106Z,67.50
2023-01-11T12:36:03.391Z,73.13
2023-01-11T12:37:02.206Z,73.13
2023-01-11T12:38:02.247Z,73.13
2023-01-11T12:39:02.284Z,73.13
2023-01-11T12:40:02.354Z,67.50
2023-01-11T12:41:02.394Z,67.50
2023-01-11T12:42:02.447Z,67.50
2023-01-11T12:43:02.461Z,67.50
2023-01-11T12:44:02.518Z,67.50
2023-01-11T12:45:02.572Z,67.50
2023-01-11T12:46:02.670Z,61.88
2023-01-11T12:47:02.655Z,61.88
2023-01-11T12:48:02.692Z,56.25
2023-01-11T12:49:02.731Z,56.25
2023-01-11T12:50:02.795Z,56.25
2023-01-11T12:51:02.822Z,56.25
2023-01-11T12:52:02.883Z,56.25
2023-01-11T12:53:02.928Z,50.63
2023-01-11T12:54:02.962Z,56.25
2023-01-11T12:55:03.007Z,56.25
2023-01-11T12:56:03.073Z,56.25
2023-01-11T12:57:03.114Z,61.88
2023-01-11T12:58:03.162Z,61.88
2023-01-11T12:59:03.213Z,61.88
2023-01-11T13:00:03.212Z,61.88
2023-01-11T13:01:03.285Z,67.50
2023-01-11T13:02:03.382Z,67.50
2023-01-11T13:03:03.354Z,67.50
2023-01-11T13:04:03.395Z,73.13
2023-01-11T13:05:03.465Z,73.13
2023-01-11T13:06:03.496Z,73.13
2023-01-11T13:07:03.536Z,67.50
2023-01-11T13:08:03.589Z,61.88
2023-01-11T13:09:03.671Z,50.63
2023-01-11T13:10:03.661Z,45.00
2023-01-11T13:11:03.714Z,45.00